createdAt,value
2018-12-06T00:00:44.192Z,963.84
2018-12-06T00:01:44.277Z,963.79
2018-12-06T00:02:44.086Z,963.79
2018-12-06T00:03:44.031Z,963.76
2018-12-06T00:04:44.189Z,963.85
2018-12-06T00:05:43.931Z,963.90
2018-12-06T00:06:43.875Z,963.89
2018-12-06T00:07:43.983Z,964.00
2018-12-06T00:08:43.774Z,964.01
2018-12-06T00:09:43.721Z,963.98
2018-12-06T00:10:43.685Z,963.99
2018-12-06T00:11:43.621Z,964.00
2018-12-06T00:12:43.582Z,964.03
2018-12-06T00:13:43.516Z,964.05
2018-12-06T00:14:43.687Z,964.17
2018-12-06T00:15:43.406Z,964.17
2018-12-06T00:16:43.363Z,964.03
2018-12-06T00:17:43.319Z,963.99
2018-12-06T00:18:43.314Z,963.94
2018-12-06T00:19:43.390Z,963.90
2018-12-06T00:20:43.153Z,964.03
2018-12-06T00:21:43.097Z,964.31
2018-12-06T00:22:43.193Z,964.58
2018-12-06T00:23:42.993Z,964.64
2018-12-06T00:24:42.945Z,964.55
2018-12-06T00:25:43.106Z,964.45
2018-12-06T00:26:42.839Z,964.50
2018-12-06T00:27:42.785Z,964.55
2018-12-06T00:28:43.005Z,964.51
2018-12-06T00:29:42.690Z,964.44
2018-12-06T00:30:42.638Z,964.39
2018-12-06T00:31:42.799Z,964.32
2018-12-06T00:32:42.526Z,964.27
2018-12-06T00:33:42.476Z,964.37
2018-12-06T00:34:42.605Z,964.41
2018-12-06T00:35:42.375Z,964.35
2018-12-06T00:36:42.320Z,964.32
2018-12-06T00:37:42.505Z,964.27
2018-12-06T00:38:42.220Z,964.26
2018-12-06T00:39:42.165Z,964.15
2018-12-06T00:40:42.307Z,964.22
2018-12-06T00:41:42.060Z,964.24
2018-12-06T00:42:42.012Z,964.26
2018-12-06T00:43:42.102Z,964.17
2018-12-06T00:44:41.910Z,964.19
2018-12-06T00:45:41.852Z,964.14
2018-12-06T00:46:42.005Z,964.15
2018-12-06T00:47:41.750Z,964.17
2018-12-06T00:48:41.702Z,964.25
2018-12-06T00:49:41.801Z,964.31
2018-12-06T00:50:41.593Z,964.30
2018-12-06T00:51:41.541Z,964.35
2018-12-06T00:52:41.700Z,964.41
2018-12-06T00:53:41.441Z,964.33
2018-12-06T00:54:41.385Z,964.36
2018-12-06T00:55:41.398Z,964.35
2018-12-06T00:56:41.281Z,964.40
2018-12-06T00:57:41.230Z,964.36
2018-12-06T00:58:41.405Z,964.35
2018-12-06T00:59:41.124Z,964.32
2018-12-06T01:00:41.077Z,964.36
2018-12-06T01:01:41.223Z,964.30
2018-12-06T01:02:40.968Z,964.29
2018-12-06T01:03:40.918Z,964.27
2018-12-06T01:04:41.010Z,964.35
2018-12-06T01:05:40.816Z,964.35
2018-12-06T01:06:40.765Z,964.38
2018-12-06T01:07:40.912Z,964.48
2018-12-06T01:08:40.662Z,964.49
2018-12-06T01:09:40.608Z,964.49
2018-12-06T01:10:40.721Z,964.50
2018-12-06T01:11:40.506Z,964.56
2018-12-06T01:12:40.451Z,964.61
2018-12-06T01:13:40.609Z,964.70
2018-12-06T01:14:40.349Z,964.68
2018-12-06T01:15:40.298Z,964.66
2018-12-06T01:16:40.421Z,964.74
2018-12-06T01:17:40.193Z,964.69
2018-12-06T01:18:40.141Z,964.74
2018-12-06T01:19:40.326Z,964.74
2018-12-06T01:20:40.038Z,964.73
2018-12-06T01:21:39.996Z,964.78
2018-12-06T01:22:40.129Z,964.83
2018-12-06T01:23:39.882Z,964.89
2018-12-06T01:24:39.828Z,964.87
2018-12-06T01:25:39.912Z,964.86
2018-12-06T01:26:39.730Z,964.81
2018-12-06T01:27:39.676Z,964.79
2018-12-06T01:28:39.825Z,964.83
2018-12-06T01:29:39.571Z,964.83
2018-12-06T01:30:39.519Z,964.84
2018-12-06T01:31:39.627Z,964.87
2018-12-06T01:32:39.413Z,964.84
2018-12-06T01:33:39.369Z,964.86
2018-12-06T01:34:39.522Z,964.78
2018-12-06T01:35:39.261Z,964.80
2018-12-06T01:36:39.207Z,964.80
2018-12-06T01:37:39.321Z,964.86
2018-12-06T01:38:39.105Z,964.89
2018-12-06T01:39:39.056Z,964.83
2018-12-06T01:40:39.227Z,964.75
2018-12-06T01:41:38.954Z,964.77
2018-12-06T01:42:38.899Z,964.83
2018-12-06T01:43:39.024Z,964.89
2018-12-06T01:44:38.796Z,964.88
2018-12-06T01:45:38.757Z,964.84
2018-12-06T01:46:38.936Z,964.82
2018-12-06T01:47:38.640Z,964.73
2018-12-06T01:48:38.589Z,964.80
2018-12-06T01:49:38.730Z,964.78
2018-12-06T01:50:38.486Z,964.74
2018-12-06T01:51:38.443Z,964.77
2018-12-06T01:52:38.525Z,964.72
2018-12-06T01:53:38.336Z,964.74
2018-12-06T01:54:38.277Z,964.72
2018-12-06T01:55:38.246Z,964.66
2018-12-06T01:56:38.178Z,964.62
2018-12-06T01:57:38.141Z,964.60
2018-12-06T01:58:38.072Z,964.58
2018-12-06T01:59:38.020Z,964.52
2018-12-06T02:00:37.985Z,964.57
2018-12-06T02:01:37.921Z,964.52
2018-12-06T02:02:38.034Z,964.55
2018-12-06T02:03:37.817Z,964.53
2018-12-06T02:04:37.763Z,964.56
2018-12-06T02:05:37.721Z,964.55
2018-12-06T02:06:37.660Z,964.54
2018-12-06T02:07:37.845Z,964.56
2018-12-06T02:08:37.555Z,964.50
2018-12-06T02:09:37.507Z,964.45
2018-12-06T02:10:37.455Z,964.48
2018-12-06T02:11:37.406Z,964.43
2018-12-06T02:12:37.366Z,964.40
2018-12-06T02:13:37.302Z,964.42
2018-12-06T02:14:37.439Z,964.42
2018-12-06T02:15:37.197Z,964.41
2018-12-06T02:16:37.144Z,964.35
2018-12-06T02:17:37.110Z,964.41
2018-12-06T02:18:37.044Z,964.40
2018-12-06T02:19:37.142Z,964.37
2018-12-06T02:20:36.938Z,964.37
2018-12-06T02:21:36.889Z,964.32
2018-12-06T02:22:36.849Z,964.33
2018-12-06T02:23:36.784Z,964.31
2018-12-06T02:24:36.944Z,964.28
2018-12-06T02:25:36.677Z,964.26
2018-12-06T02:26:36.627Z,964.23
2018-12-06T02:27:36.574Z,964.17
2018-12-06T02:28:36.521Z,964.13
2018-12-06T02:29:36.638Z,964.07
2018-12-06T02:30:36.419Z,964.02
2018-12-06T02:31:36.367Z,964.09
2018-12-06T02:32:36.333Z,964.01
2018-12-06T02:33:36.274Z,963.94
2018-12-06T02:34:36.459Z,963.95
2018-12-06T02:35:36.160Z,963.86
2018-12-06T02:36:36.103Z,963.78
2018-12-06T02:37:36.050Z,963.70
2018-12-06T02:38:36.009Z,963.65
2018-12-06T02:39:36.153Z,963.68
2018-12-06T02:40:35.902Z,963.70
2018-12-06T02:41:35.846Z,963.71
2018-12-06T02:42:35.817Z,963.71
2018-12-06T02:43:35.745Z,963.65
2018-12-06T02:44:35.850Z,963.64
2018-12-06T02:45:35.641Z,963.57
2018-12-06T02:46:35.600Z,963.55
2018-12-06T02:47:35.560Z,963.52
2018-12-06T02:48:35.498Z,963.51
2018-12-06T02:49:35.573Z,963.55
2018-12-06T02:50:35.374Z,963.51
2018-12-06T02:51:35.336Z,963.55
2018-12-06T02:52:35.285Z,963.57
2018-12-06T02:53:35.216Z,963.58
2018-12-06T02:54:35.375Z,963.57
2018-12-06T02:55:35.122Z,963.60
2018-12-06T02:56:35.072Z,963.63
2018-12-06T02:57:35.017Z,963.58
2018-12-06T02:58:34.966Z,963.64
2018-12-06T02:59:35.057Z,963.65
2018-12-06T03:00:34.859Z,963.65
2018-12-06T03:01:34.808Z,963.64
2018-12-06T03:02:34.773Z,963.64
2018-12-06T03:03:34.704Z,963.57
2018-12-06T03:04:34.874Z,963.56
2018-12-06T03:05:34.598Z,963.53
2018-12-06T03:06:34.547Z,963.51
2018-12-06T03:07:34.516Z,963.55
2018-12-06T03:08:34.441Z,963.50
2018-12-06T03:09:34.575Z,963.48
2018-12-06T03:10:34.344Z,963.51
2018-12-06T03:11:34.283Z,963.54
2018-12-06T03:12:34.254Z,963.53
2018-12-06T03:13:34.181Z,963.53
2018-12-06T03:14:34.374Z,963.50
2018-12-06T03:15:34.096Z,963.51
2018-12-06T03:16:34.039Z,963.50
2018-12-06T03:17:33.984Z,963.47
2018-12-06T03:18:33.931Z,963.53
2018-12-06T03:19:34.155Z,963.51
2018-12-06T03:20:33.823Z,963.49
2018-12-06T03:21:33.769Z,963.50
2018-12-06T03:22:33.738Z,963.46
2018-12-06T03:23:33.671Z,963.46
2018-12-06T03:24:33.783Z,963.46
2018-12-06T03:25:33.553Z,963.45
2018-12-06T03:26:33.506Z,963.44
2018-12-06T03:27:33.456Z,963.43
2018-12-06T03:28:33.406Z,963.50
2018-12-06T03:29:33.368Z,963.49
2018-12-06T03:30:33.301Z,963.49
2018-12-06T03:31:33.479Z,963.43
2018-12-06T03:32:33.203Z,963.39
2018-12-06T03:33:33.147Z,963.36
2018-12-06T03:34:33.093Z,963.32
2018-12-06T03:35:33.041Z,963.35
2018-12-06T03:36:32.999Z,963.37
2018-12-06T03:37:32.934Z,963.38
2018-12-06T03:38:33.092Z,963.43
2018-12-06T03:39:32.838Z,963.53
2018-12-06T03:40:32.786Z,963.58
2018-12-06T03:41:32.729Z,963.63
2018-12-06T03:42:32.678Z,963.60
2018-12-06T03:43:32.783Z,963.66
2018-12-06T03:44:32.579Z,963.65
2018-12-06T03:45:32.555Z,963.67
2018-12-06T03:46:32.474Z,963.61
2018-12-06T03:47:32.432Z,963.62
2018-12-06T03:48:32.372Z,963.60
2018-12-06T03:49:32.320Z,963.58
2018-12-06T03:50:32.486Z,963.52
2018-12-06T03:51:32.224Z,963.48
2018-12-06T03:52:32.165Z,963.42
2018-12-06T03:53:32.114Z,963.39
2018-12-06T03:54:32.065Z,963.30
2018-12-06T03:55:32.198Z,963.29
2018-12-06T03:56:31.957Z,963.34
2018-12-06T03:57:31.906Z,963.33
2018-12-06T03:58:31.867Z,963.33
2018-12-06T03:59:31.799Z,963.32
2018-12-06T04:00:31.999Z,963.32
2018-12-06T04:01:31.705Z,963.27
2018-12-06T04:02:31.648Z,963.27
2018-12-06T04:03:31.615Z,963.25
2018-12-06T04:04:31.547Z,963.23
2018-12-06T04:05:31.687Z,963.22
2018-12-06T04:06:31.441Z,963.26
2018-12-06T04:07:31.387Z,963.23
2018-12-06T04:08:31.363Z,963.22
2018-12-06T04:09:31.286Z,963.22
2018-12-06T04:10:31.325Z,963.18
2018-12-06T04:11:31.179Z,963.23
2018-12-06T04:12:31.124Z,963.20
2018-12-06T04:13:31.119Z,963.19
2018-12-06T04:14:31.030Z,963.17
2018-12-06T04:15:31.193Z,963.19
2018-12-06T04:16:30.925Z,963.15
2018-12-06T04:17:30.873Z,963.17
2018-12-06T04:18:30.842Z,963.19
2018-12-06T04:19:30.774Z,963.18
2018-12-06T04:20:30.897Z,963.21
2018-12-06T04:21:30.668Z,963.23
2018-12-06T04:22:30.622Z,963.25
2018-12-06T04:23:30.579Z,963.29
2018-12-06T04:24:30.513Z,963.30
2018-12-06T04:25:30.603Z,963.34
2018-12-06T04:26:30.411Z,963.31
2018-12-06T04:27:30.359Z,963.31
2018-12-06T04:28:30.329Z,963.31
2018-12-06T04:29:30.256Z,963.35
2018-12-06T04:30:30.401Z,963.37
2018-12-06T04:31:30.151Z,963.38
2018-12-06T04:32:30.102Z,963.37
2018-12-06T04:33:30.063Z,963.39
2018-12-06T04:34:30.004Z,963.36
2018-12-06T04:35:30.115Z,963.37
2018-12-06T04:36:29.897Z,963.35
2018-12-06T04:37:29.845Z,963.36
2018-12-06T04:38:29.809Z,963.42
2018-12-06T04:39:29.739Z,963.42
2018-12-06T04:40:29.924Z,963.42
2018-12-06T04:41:29.629Z,963.38
2018-12-06T04:42:29.590Z,963.41
2018-12-06T04:43:29.553Z,963.37
2018-12-06T04:44:29.486Z,963.35
2018-12-06T04:45:29.604Z,963.35
2018-12-06T04:46:29.454Z,963.42
2018-12-06T04:47:29.330Z,963.36
2018-12-06T04:48:29.293Z,963.36
2018-12-06T04:49:29.223Z,963.40
2018-12-06T04:50:29.415Z,963.42
2018-12-06T04:51:29.125Z,963.41
2018-12-06T04:52:29.082Z,963.44
2018-12-06T04:53:29.042Z,963.42
2018-12-06T04:54:28.981Z,963.46
2018-12-06T04:55:29.118Z,963.52
2018-12-06T04:56:28.860Z,963.52
2018-12-06T04:57:28.817Z,963.55
2018-12-06T04:58:28.782Z,963.55
2018-12-06T04:59:28.713Z,963.56
2018-12-06T05:00:28.825Z,963.57
2018-12-06T05:01:28.611Z,963.54
2018-12-06T05:02:28.563Z,963.60
2018-12-06T05:03:28.524Z,963.66
2018-12-06T05:04:28.459Z,963.70
2018-12-06T05:05:28.617Z,963.73
2018-12-06T05:06:28.364Z,963.71
2018-12-06T05:07:28.304Z,963.74
2018-12-06T05:08:28.269Z,963.77
2018-12-06T05:09:28.200Z,963.78
2018-12-06T05:10:28.149Z,963.83
2018-12-06T05:11:28.098Z,963.85
2018-12-06T05:12:28.116Z,963.86
2018-12-06T05:13:28.001Z,963.86
2018-12-06T05:14:27.951Z,963.82
2018-12-06T05:15:27.904Z,963.86
2018-12-06T05:16:27.844Z,963.83
2018-12-06T05:17:27.928Z,963.79
2018-12-06T05:18:27.741Z,963.77
2018-12-06T05:19:27.690Z,963.80
2018-12-06T05:20:27.658Z,963.82
2018-12-06T05:21:27.588Z,963.82
2018-12-06T05:22:27.725Z,963.85
2018-12-06T05:23:27.485Z,963.82
2018-12-06T05:24:27.437Z,963.86
2018-12-06T05:25:27.389Z,963.86
2018-12-06T05:26:27.337Z,963.85
2018-12-06T05:27:27.286Z,963.80
2018-12-06T05:28:27.228Z,963.81
2018-12-06T05:29:27.344Z,963.75
2018-12-06T05:30:27.119Z,963.71
2018-12-06T05:31:27.092Z,963.76
2018-12-06T05:32:27.051Z,963.73
2018-12-06T05:33:26.969Z,963.72
2018-12-06T05:34:27.130Z,963.69
2018-12-06T05:35:26.873Z,963.67
2018-12-06T05:36:26.815Z,963.64
2018-12-06T05:37:26.787Z,963.70
2018-12-06T05:38:26.717Z,963.66
2018-12-06T05:39:26.847Z,963.63
2018-12-06T05:40:26.619Z,963.62
2018-12-06T05:41:26.560Z,963.62
2018-12-06T05:42:26.529Z,963.58
2018-12-06T05:43:26.459Z,963.60
2018-12-06T05:44:26.632Z,963.57
2018-12-06T05:45:26.353Z,963.57
2018-12-06T05:46:26.309Z,963.58
2018-12-06T05:47:26.275Z,963.58
2018-12-06T05:48:26.206Z,963.51
2018-12-06T05:49:26.352Z,963.52
2018-12-06T05:50:26.104Z,963.50
2018-12-06T05:51:26.055Z,963.46
2018-12-06T05:52:26.018Z,963.47
2018-12-06T05:53:25.947Z,963.42
2018-12-06T05:54:26.050Z,963.45
2018-12-06T05:55:25.849Z,963.50
2018-12-06T05:56:25.794Z,963.53
2018-12-06T05:57:25.743Z,963.53
2018-12-06T05:58:25.692Z,963.55
2018-12-06T05:59:25.947Z,963.56
2018-12-06T06:00:25.589Z,963.59
2018-12-06T06:01:25.535Z,963.58
2018-12-06T06:02:25.496Z,963.64
2018-12-06T06:03:25.469Z,963.63
2018-12-06T06:04:25.562Z,963.68
2018-12-06T06:05:25.327Z,963.69
2018-12-06T06:06:25.277Z,963.70
2018-12-06T06:07:25.240Z,963.75
2018-12-06T06:08:25.184Z,963.74
2018-12-06T06:09:25.695Z,963.78
2018-12-06T06:10:25.073Z,963.78
2018-12-06T06:11:25.024Z,963.76
2018-12-06T06:12:24.994Z,963.82
2018-12-06T06:13:24.921Z,963.82
2018-12-06T06:14:25.063Z,963.84
2018-12-06T06:15:24.824Z,963.82
2018-12-06T06:16:24.769Z,963.85
2018-12-06T06:17:24.719Z,963.84
2018-12-06T06:18:24.666Z,963.87
2018-12-06T06:19:24.612Z,963.89
2018-12-06T06:20:24.561Z,963.87
2018-12-06T06:21:24.506Z,963.85
2018-12-06T06:22:24.458Z,963.90
2018-12-06T06:23:24.403Z,963.96
2018-12-06T06:24:24.357Z,963.94
2018-12-06T06:25:24.318Z,963.97
2018-12-06T06:26:24.253Z,963.99
2018-12-06T06:27:24.202Z,963.98
2018-12-06T06:28:24.148Z,964.04
2018-12-06T06:29:24.103Z,964.03
2018-12-06T06:30:24.040Z,964.02
2018-12-06T06:31:23.991Z,964.03
2018-12-06T06:32:23.938Z,963.99
2018-12-06T06:33:23.919Z,963.99
2018-12-06T06:34:23.838Z,964.01
2018-12-06T06:35:23.969Z,964.00
2018-12-06T06:36:23.737Z,964.06
2018-12-06T06:37:23.684Z,964.05
2018-12-06T06:38:23.623Z,964.03
2018-12-06T06:39:23.587Z,964.07
2018-12-06T06:40:23.531Z,964.02
2018-12-06T06:41:23.483Z,964.04
2018-12-06T06:42:23.428Z,964.04
2018-12-06T06:43:23.371Z,964.02
2018-12-06T06:44:23.314Z,964.04
2018-12-06T06:45:23.270Z,964.06
2018-12-06T06:46:23.244Z,964.04
2018-12-06T06:47:23.174Z,964.07
2018-12-06T06:48:23.120Z,964.11
2018-12-06T06:49:23.103Z,964.13
2018-12-06T06:50:23.011Z,964.13
2018-12-06T06:51:22.961Z,964.15
2018-12-06T06:52:22.924Z,964.11
2018-12-06T06:53:22.867Z,964.10
2018-12-06T06:54:22.805Z,964.08
2018-12-06T06:55:22.755Z,964.08
2018-12-06T06:56:22.711Z,964.08
2018-12-06T06:57:22.653Z,964.15
2018-12-06T06:58:22.681Z,964.13
2018-12-06T06:59:26.140Z,964.15
2018-12-06T07:00:22.516Z,964.10
2018-12-06T07:01:22.446Z,964.17
2018-12-06T07:02:22.396Z,964.15
2018-12-06T07:03:22.340Z,964.19
2018-12-06T07:04:22.292Z,964.16
2018-12-06T07:05:22.238Z,964.18
2018-12-06T07:06:22.188Z,964.19
2018-12-06T07:07:22.137Z,964.17
2018-12-06T07:08:22.118Z,964.17
2018-12-06T07:09:22.034Z,964.19
2018-12-06T07:10:21.983Z,964.21
2018-12-06T07:11:21.933Z,964.23
2018-12-06T07:12:21.892Z,964.18
2018-12-06T07:13:22.973Z,964.18
2018-12-06T07:14:21.776Z,964.13
2018-12-06T07:15:21.725Z,964.17
2018-12-06T07:16:21.674Z,964.16
2018-12-06T07:17:21.622Z,964.15
2018-12-06T07:18:21.571Z,964.15
2018-12-06T07:19:21.519Z,964.15
2018-12-06T07:20:21.711Z,964.16
2018-12-06T07:21:21.538Z,964.16
2018-12-06T07:22:21.424Z,964.18
2018-12-06T07:23:21.388Z,964.18
2018-12-06T07:24:21.267Z,964.15
2018-12-06T07:25:21.211Z,964.19
2018-12-06T07:26:21.168Z,964.18
2018-12-06T07:27:21.113Z,964.25
2018-12-06T07:28:21.062Z,964.18
2018-12-06T07:29:21.032Z,964.16
2018-12-06T07:30:20.953Z,964.20
2018-12-06T07:31:20.904Z,964.21
2018-12-06T07:32:20.855Z,964.24
2018-12-06T07:33:20.800Z,964.28
2018-12-06T07:34:20.751Z,964.22
2018-12-06T07:35:20.699Z,964.22
2018-12-06T07:36:20.662Z,964.25
2018-12-06T07:37:20.591Z,964.24
2018-12-06T07:38:20.547Z,964.28
2018-12-06T07:39:20.496Z,964.26
2018-12-06T07:40:20.443Z,964.25
2018-12-06T07:41:20.432Z,964.25
2018-12-06T07:42:20.351Z,964.29
2018-12-06T07:43:20.332Z,964.24
2018-12-06T07:44:20.237Z,964.30
2018-12-06T07:45:20.187Z,964.25
2018-12-06T07:46:20.131Z,964.27
2018-12-06T07:47:20.106Z,964.28
2018-12-06T07:48:20.054Z,964.29
2018-12-06T07:49:20.070Z,964.32
2018-12-06T07:50:19.929Z,964.33
2018-12-06T07:51:19.881Z,964.30
2018-12-06T07:52:19.830Z,964.36
2018-12-06T07:53:19.777Z,964.34
2018-12-06T07:54:19.725Z,964.39
2018-12-06T07:55:19.673Z,964.39
2018-12-06T07:56:19.623Z,964.41
2018-12-06T07:57:19.571Z,964.44
2018-12-06T07:58:19.516Z,964.44
2018-12-06T07:59:19.472Z,964.45
2018-12-06T08:00:19.420Z,964.47
2018-12-06T08:01:19.369Z,964.46
2018-12-06T08:02:19.316Z,964.53
2018-12-06T08:03:19.270Z,964.56
2018-12-06T08:04:19.218Z,964.51
2018-12-06T08:05:19.165Z,964.57
2018-12-06T08:06:19.112Z,964.62
2018-12-06T08:07:19.064Z,964.63
2018-12-06T08:08:19.016Z,964.62
2018-12-06T08:09:18.961Z,964.64
2018-12-06T08:10:18.910Z,964.69
2018-12-06T08:11:18.858Z,964.71
2018-12-06T08:12:18.810Z,964.72
2018-12-06T08:13:18.775Z,964.77
2018-12-06T08:14:18.708Z,964.80
2018-12-06T08:15:18.659Z,964.79
2018-12-06T08:16:18.607Z,964.81
2018-12-06T08:17:18.572Z,964.87
2018-12-06T08:18:18.505Z,964.84
2018-12-06T08:19:18.490Z,964.89
2018-12-06T08:20:18.487Z,964.94
2018-12-06T08:21:18.354Z,964.93
2018-12-06T08:22:18.303Z,964.97
2018-12-06T08:23:18.252Z,964.99
2018-12-06T08:24:18.201Z,964.94
2018-12-06T08:25:18.150Z,964.94
2018-12-06T08:26:18.108Z,964.96
2018-12-06T08:27:18.043Z,965.00
2018-12-06T08:28:18.004Z,965.00
2018-12-06T08:29:17.949Z,964.99
2018-12-06T08:30:17.890Z,965.06
2018-12-06T08:31:17.851Z,965.05
2018-12-06T08:32:18.277Z,965.09
2018-12-06T08:33:17.743Z,965.11
2018-12-06T08:34:17.947Z,965.11
2018-12-06T08:35:17.644Z,965.15
2018-12-06T08:36:17.597Z,965.16
2018-12-06T08:37:17.544Z,965.17
2018-12-06T08:38:17.493Z,965.14
2018-12-06T08:39:17.444Z,965.13
2018-12-06T08:40:17.395Z,965.14
2018-12-06T08:41:17.344Z,965.15
2018-12-06T08:42:17.292Z,965.12
2018-12-06T08:43:17.240Z,965.14
2018-12-06T08:44:21.346Z,965.12
2018-12-06T08:45:17.140Z,965.16
2018-12-06T08:46:17.089Z,965.12
2018-12-06T08:47:17.048Z,965.16
2018-12-06T08:48:16.989Z,965.22
2018-12-06T08:49:16.940Z,965.20
2018-12-06T08:50:16.890Z,965.24
2018-12-06T08:51:16.838Z,965.26
2018-12-06T08:52:16.791Z,965.29
2018-12-06T08:53:16.736Z,965.32
2018-12-06T08:54:16.687Z,965.33
2018-12-06T08:55:16.636Z,965.35
2018-12-06T08:56:16.602Z,965.30
2018-12-06T08:57:16.537Z,965.33
2018-12-06T08:58:16.489Z,965.33
2018-12-06T08:59:16.440Z,965.34
2018-12-06T09:00:16.385Z,965.36
2018-12-06T09:01:16.332Z,965.39
2018-12-06T09:02:16.283Z,965.38
2018-12-06T09:03:16.238Z,965.42
2018-12-06T09:04:16.184Z,965.43
2018-12-06T09:05:16.131Z,965.40
2018-12-06T09:06:16.090Z,965.42
2018-12-06T09:07:16.031Z,965.44
2018-12-06T09:08:15.984Z,965.45
2018-12-06T09:09:15.932Z,965.50
2018-12-06T09:10:15.886Z,965.54
2018-12-06T09:11:15.921Z,965.53
2018-12-06T09:12:15.780Z,965.55
2018-12-06T09:13:16.213Z,965.57
2018-12-06T09:14:15.673Z,965.60
2018-12-06T09:15:15.632Z,965.58
2018-12-06T09:16:16.346Z,965.59
2018-12-06T09:17:15.531Z,965.57
2018-12-06T09:18:15.484Z,965.61
2018-12-06T09:19:15.448Z,965.61
2018-12-06T09:20:15.376Z,965.60
2018-12-06T09:21:15.325Z,965.64
2018-12-06T09:22:15.279Z,965.68
2018-12-06T09:23:15.227Z,965.70
2018-12-06T09:24:15.175Z,965.67
2018-12-06T09:25:21.018Z,965.69
2018-12-06T09:26:15.238Z,965.69
2018-12-06T09:27:15.023Z,965.71
2018-12-06T09:28:14.978Z,965.69
2018-12-06T09:29:14.927Z,965.71
2018-12-06T09:30:14.871Z,965.70
2018-12-06T09:31:14.839Z,965.70
2018-12-06T09:32:14.772Z,965.70
2018-12-06T09:33:14.721Z,965.69
2018-12-06T09:34:14.671Z,965.71
2018-12-06T09:35:14.621Z,965.70
2018-12-06T09:36:14.570Z,965.70
2018-12-06T09:37:14.519Z,965.66
2018-12-06T09:38:14.469Z,965.66
2018-12-06T09:39:14.420Z,965.66
2018-12-06T09:40:14.366Z,965.66
2018-12-06T09:41:14.319Z,965.68
2018-12-06T09:42:14.261Z,965.68
2018-12-06T09:43:14.215Z,965.69
2018-12-06T09:44:14.176Z,965.67
2018-12-06T09:45:14.119Z,965.66
2018-12-06T09:46:14.080Z,965.68
2018-12-06T09:47:14.016Z,965.67
2018-12-06T09:48:13.968Z,965.70
2018-12-06T09:49:13.917Z,965.71
2018-12-06T09:50:13.865Z,965.72
2018-12-06T09:51:13.815Z,965.75
2018-12-06T09:52:13.766Z,965.76
2018-12-06T09:53:13.718Z,965.73
2018-12-06T09:54:13.665Z,965.77
2018-12-06T09:55:13.606Z,965.80
2018-12-06T09:56:13.565Z,965.77
2018-12-06T09:57:13.514Z,965.79
2018-12-06T09:58:13.465Z,965.73
2018-12-06T09:59:13.414Z,965.74
2018-12-06T10:00:13.365Z,965.74
2018-12-06T10:01:13.316Z,965.76
2018-12-06T10:02:13.270Z,965.68
2018-12-06T10:03:13.214Z,965.73
2018-12-06T10:04:13.170Z,965.73
2018-12-06T10:05:13.113Z,965.70
2018-12-06T10:06:13.063Z,965.70
2018-12-06T10:07:13.042Z,965.70
2018-12-06T10:08:12.962Z,965.70
2018-12-06T10:09:12.920Z,965.71
2018-12-06T10:10:12.862Z,965.79
2018-12-06T10:11:12.812Z,965.80
2018-12-06T10:12:12.765Z,965.82
2018-12-06T10:13:12.713Z,965.84
2018-12-06T10:14:12.666Z,965.80
2018-12-06T10:15:12.615Z,965.83
2018-12-06T10:16:12.584Z,965.82
2018-12-06T10:17:12.511Z,965.82
2018-12-06T10:18:12.464Z,965.80
2018-12-06T10:19:12.416Z,965.83
2018-12-06T10:20:12.374Z,965.84
2018-12-06T10:21:12.315Z,965.86
2018-12-06T10:22:12.263Z,965.85
2018-12-06T10:23:12.213Z,965.84
2018-12-06T10:24:12.164Z,965.80
2018-12-06T10:25:12.112Z,965.79
2018-12-06T10:26:12.063Z,965.82
2018-12-06T10:27:12.187Z,965.84
2018-12-06T10:28:11.964Z,965.78
2018-12-06T10:29:11.911Z,965.82
2018-12-06T10:30:11.862Z,965.80
2018-12-06T10:31:11.810Z,965.84
2018-12-06T10:32:11.767Z,965.81
2018-12-06T10:33:11.712Z,965.84
2018-12-06T10:34:11.661Z,965.82
2018-12-06T10:35:11.613Z,965.87
2018-12-06T10:36:11.564Z,965.86
2018-12-06T10:37:11.511Z,965.91
2018-12-06T10:38:11.673Z,965.86
2018-12-06T10:39:11.412Z,965.82
2018-12-06T10:40:11.364Z,965.85
2018-12-06T10:41:11.310Z,965.85
2018-12-06T10:42:11.263Z,965.86
2018-12-06T10:43:11.215Z,965.82
2018-12-06T10:44:11.169Z,965.88
2018-12-06T10:45:11.120Z,965.93
2018-12-06T10:46:11.067Z,965.90
2018-12-06T10:47:11.017Z,965.91
2018-12-06T10:48:10.967Z,965.86
2018-12-06T10:49:10.915Z,965.84
2018-12-06T10:50:10.869Z,965.86
2018-12-06T10:51:10.815Z,965.88
2018-12-06T10:52:10.766Z,965.89
2018-12-06T10:53:10.713Z,965.92
2018-12-06T10:54:10.670Z,965.94
2018-12-06T10:55:10.615Z,965.94
2018-12-06T10:56:10.566Z,965.96
2018-12-06T10:57:10.525Z,966.02
2018-12-06T10:58:10.469Z,966.03
2018-12-06T10:59:10.418Z,966.01
2018-12-06T11:00:10.370Z,965.98
2018-12-06T11:01:10.323Z,965.95
2018-12-06T11:02:10.274Z,965.97
2018-12-06T11:03:10.214Z,966.00
2018-12-06T11:04:10.172Z,965.94
2018-12-06T11:05:10.170Z,965.98
2018-12-06T11:06:10.072Z,965.99
2018-12-06T11:07:10.022Z,965.95
2018-12-06T11:08:09.974Z,965.99
2018-12-06T11:09:09.922Z,966.01
2018-12-06T11:10:09.882Z,966.03
2018-12-06T11:11:09.824Z,965.97
2018-12-06T11:12:09.974Z,965.98
2018-12-06T11:13:09.727Z,965.96
2018-12-06T11:14:09.696Z,965.91
2018-12-06T11:15:09.629Z,965.95
2018-12-06T11:16:09.583Z,965.94
2018-12-06T11:17:09.530Z,965.93
2018-12-06T11:18:09.471Z,965.91
2018-12-06T11:19:09.430Z,965.91
2018-12-06T11:20:09.595Z,965.91
2018-12-06T11:21:09.358Z,965.90
2018-12-06T11:22:09.322Z,965.87
2018-12-06T11:23:09.233Z,965.95
2018-12-06T11:24:09.194Z,965.91
2018-12-06T11:25:09.140Z,965.90
2018-12-06T11:26:09.088Z,965.90
2018-12-06T11:27:09.037Z,965.87
2018-12-06T11:28:08.985Z,965.84
2018-12-06T11:29:08.937Z,965.81
2018-12-06T11:30:08.913Z,965.83
2018-12-06T11:31:08.843Z,965.81
2018-12-06T11:32:08.788Z,965.86
2018-12-06T11:33:08.766Z,965.82
2018-12-06T11:34:08.903Z,965.81
2018-12-06T11:35:08.648Z,965.85
2018-12-06T11:36:08.591Z,965.78
2018-12-06T11:37:08.593Z,965.77
2018-12-06T11:38:08.493Z,965.72
2018-12-06T11:39:08.447Z,965.74
2018-12-06T11:40:08.395Z,965.74
2018-12-06T11:41:08.359Z,965.76
2018-12-06T11:42:08.296Z,965.73
2018-12-06T11:43:08.243Z,965.75
2018-12-06T11:44:08.208Z,965.69
2018-12-06T11:45:08.149Z,965.68
2018-12-06T11:46:08.104Z,965.65
2018-12-06T11:47:08.048Z,965.63
2018-12-06T11:48:08.978Z,965.63
2018-12-06T11:49:07.951Z,965.61
2018-12-06T11:50:07.901Z,965.60
2018-12-06T11:51:07.850Z,965.62
2018-12-06T11:52:07.803Z,965.61
2018-12-06T11:53:07.750Z,965.60
2018-12-06T11:54:07.719Z,965.56
2018-12-06T11:55:07.665Z,965.57
2018-12-06T11:56:07.612Z,965.54
2018-12-06T11:57:07.605Z,965.56
2018-12-06T11:58:11.408Z,965.57
2018-12-06T11:59:07.464Z,965.56
2018-12-06T12:00:07.425Z,965.62
2018-12-06T12:01:07.354Z,965.61
2018-12-06T12:02:10.199Z,965.62
2018-12-06T12:03:07.265Z,965.62
2018-12-06T12:04:07.217Z,965.58
2018-12-06T12:05:07.169Z,965.56
2018-12-06T12:06:07.118Z,965.50
2018-12-06T12:07:07.105Z,965.51
2018-12-06T12:08:07.023Z,965.48
2018-12-06T12:09:07.119Z,965.48
2018-12-06T12:10:06.927Z,965.49
2018-12-06T12:11:06.877Z,965.50
2018-12-06T12:12:06.828Z,965.49
2018-12-06T12:13:06.780Z,965.48
2018-12-06T12:14:06.924Z,965.51
2018-12-06T12:15:06.677Z,965.52
2018-12-06T12:16:06.634Z,965.59
2018-12-06T12:17:06.602Z,965.53
2018-12-06T12:18:06.616Z,965.57
2018-12-06T12:19:06.722Z,965.58
2018-12-06T12:20:06.441Z,965.57
2018-12-06T12:21:06.387Z,965.60
2018-12-06T12:22:06.436Z,965.65
2018-12-06T12:23:06.294Z,965.65
2018-12-06T12:24:06.424Z,965.66
2018-12-06T12:25:06.195Z,965.67
2018-12-06T12:26:06.147Z,965.68
2018-12-06T12:27:06.105Z,965.65
2018-12-06T12:28:06.048Z,965.67